createdAt,value
2023-05-14T00:00:50.645Z,17.22
2023-05-14T00:06:24.605Z,17.21
2023-05-14T00:09:18.662Z,17.19
2023-05-14T00:12:05.562Z,17.16
2023-05-14T00:14:38.679Z,17.13
2023-05-14T00:17:25.575Z,17.10
2023-05-14T00:19:59.630Z,17.07
2023-05-14T00:22:47.607Z,17.04
2023-05-14T00:25:20.628Z,16.99
2023-05-14T00:28:07.562Z,16.94
2023-05-14T00:30:40.691Z,16.92
2023-05-14T00:33:28.786Z,16.91
2023-05-14T00:36:02.631Z,16.87
2023-05-14T00:38:49.535Z,16.84
2023-05-14T00:41:22.588Z,16.81
2023-05-14T00:44:09.500Z,16.78
2023-05-14T00:46:43.998Z,16.76
2023-05-14T00:49:30.564Z,16.73
2023-05-14T00:52:04.536Z,16.72
2023-05-14T00:54:54.510Z,16.70
2023-05-14T00:57:27.552Z,16.68
2023-05-14T01:00:17.613Z,16.67
2023-05-14T01:02:50.763Z,16.65
2023-05-14T01:05:57.452Z,16.63
2023-05-14T01:08:46.546Z,16.60
2023-05-14T01:11:40.378Z,16.57
2023-05-14T01:14:49.587Z,16.56
2023-05-14T01:17:40.393Z,16.56
2023-05-14T01:20:21.803Z,16.55
2023-05-14T01:23:02.436Z,16.54
2023-05-14T01:25:42.512Z,16.53
2023-05-14T01:28:25.430Z,16.53
2023-05-14T01:31:16.518Z,16.51
2023-05-14T01:33:56.496Z,16.50
2023-05-14T01:36:37.492Z,16.49
2023-05-14T01:39:18.396Z,16.48
2023-05-14T01:41:59.439Z,16.46
2023-05-14T01:44:40.423Z,16.43
2023-05-14T01:47:20.473Z,16.40
2023-05-14T01:50:00.432Z,16.38
2023-05-14T01:52:40.468Z,16.37
2023-05-14T01:55:20.514Z,16.36
2023-05-14T01:58:01.498Z,16.35
2023-05-14T02:00:41.447Z,16.35
2023-05-14T02:03:21.898Z,16.33
2023-05-14T02:06:02.351Z,16.31
2023-05-14T02:08:42.406Z,16.29
2023-05-14T02:11:22.457Z,16.28
2023-05-14T02:14:02.525Z,16.26
2023-05-14T02:16:42.353Z,16.26
2023-05-14T02:19:22.499Z,16.25
2023-05-14T02:22:03.375Z,16.25
2023-05-14T02:24:43.423Z,16.24
2023-05-14T02:27:23.369Z,16.24
2023-05-14T02:30:03.350Z,16.24
2023-05-14T02:32:43.339Z,16.23
2023-05-14T02:35:23.534Z,16.21
2023-05-14T02:38:03.468Z,16.19
2023-05-14T02:40:44.442Z,16.18
2023-05-14T02:43:24.410Z,16.19
2023-05-14T02:46:04.426Z,16.18
2023-05-14T02:48:44.192Z,16.19
2023-05-14T02:51:27.396Z,16.18
2023-05-14T02:54:07.161Z,16.17
2023-05-14T02:56:47.536Z,16.16
2023-05-14T02:59:27.376Z,16.14
2023-05-14T03:02:07.357Z,16.13
2023-05-14T03:04:48.168Z,16.14
2023-05-14T03:07:28.309Z,16.12
2023-05-14T03:10:08.362Z,16.11
2023-05-14T03:12:48.313Z,16.11
2023-05-14T03:15:28.256Z,16.12
2023-05-14T03:18:08.361Z,16.12
2023-05-14T03:20:48.151Z,16.12
2023-05-14T03:23:29.323Z,16.13
2023-05-14T03:26:09.094Z,16.12
2023-05-14T03:28:49.226Z,16.13
2023-05-14T03:31:29.162Z,16.13
2023-05-14T03:34:09.344Z,16.11
2023-05-14T03:36:49.092Z,16.11
2023-05-14T03:39:29.237Z,16.12
2023-05-14T03:42:10.270Z,16.12
2023-05-14T03:44:50.391Z,16.13
2023-05-14T03:47:30.211Z,16.15
2023-05-14T03:50:10.530Z,16.15
2023-05-14T03:52:51.084Z,16.17
2023-05-14T03:55:31.155Z,16.17
2023-05-14T03:58:14.219Z,16.16
2023-05-14T04:00:54.206Z,16.15
2023-05-14T04:03:34.365Z,16.16
2023-05-14T04:06:28.020Z,16.21
2023-05-14T04:09:15.132Z,16.24
2023-05-14T04:11:48.116Z,16.27
2023-05-14T04:14:35.151Z,16.32
2023-05-14T04:17:10.077Z,16.39
2023-05-14T04:19:57.015Z,16.45
2023-05-14T04:22:32.141Z,16.52
2023-05-14T04:25:18.936Z,16.58
2023-05-14T04:27:53.127Z,16.64
2023-05-14T04:30:39.997Z,16.71
2023-05-14T04:33:20.071Z,16.77
2023-05-14T04:35:59.964Z,16.83
2023-05-14T04:38:40.000Z,16.91
2023-05-14T04:41:19.968Z,16.98
2023-05-14T04:44:03.043Z,17.07
2023-05-14T04:46:42.913Z,17.18
2023-05-14T04:49:23.024Z,17.29
2023-05-14T04:52:02.969Z,17.40
2023-05-14T04:54:43.131Z,17.52
2023-05-14T04:57:22.970Z,17.60
2023-05-14T05:00:05.991Z,17.67
2023-05-14T05:02:46.086Z,17.73
2023-05-14T05:05:39.855Z,17.80
2023-05-14T05:08:26.911Z,17.93
2023-05-14T05:11:00.049Z,18.06
2023-05-14T05:13:47.875Z,18.20
2023-05-14T05:16:21.091Z,18.32
2023-05-14T05:19:07.995Z,18.44
2023-05-14T05:21:41.946Z,18.55
2023-05-14T05:24:28.897Z,18.65
2023-05-14T05:27:02.138Z,18.73
2023-05-14T05:29:49.124Z,18.83
2023-05-14T05:32:23.425Z,18.94
2023-05-14T05:35:09.967Z,19.04
2023-05-14T05:37:49.918Z,19.15
2023-05-14T05:40:29.883Z,19.22
2023-05-14T05:43:09.921Z,19.31
2023-05-14T05:45:49.809Z,19.39
2023-05-14T05:48:30.012Z,19.44
2023-05-14T05:51:10.023Z,19.46
2023-05-14T05:53:49.884Z,19.51
2023-05-14T05:56:29.850Z,19.57
2023-05-14T05:59:10.121Z,19.63
2023-05-14T06:01:50.937Z,19.68
2023-05-14T06:04:44.736Z,19.73
2023-05-14T06:07:31.801Z,19.79
2023-05-14T06:10:12.880Z,19.85
2023-05-14T06:12:52.869Z,19.90
2023-05-14T06:15:32.924Z,19.95
2023-05-14T06:18:12.761Z,19.99
2023-05-14T06:20:52.907Z,20.05
2023-05-14T06:23:32.860Z,20.11
2023-05-14T06:26:12.905Z,20.16
2023-05-14T06:28:52.714Z,20.21
2023-05-14T06:31:32.841Z,20.26
2023-05-14T06:34:12.714Z,20.34
2023-05-14T06:36:53.824Z,20.38
2023-05-14T06:39:33.763Z,20.40
2023-05-14T06:42:13.722Z,20.45
2023-05-14T06:44:53.698Z,20.52
2023-05-14T06:47:33.821Z,20.59
2023-05-14T06:50:13.651Z,20.65
2023-05-14T06:52:53.803Z,20.73
2023-05-14T06:55:33.889Z,20.80
2023-05-14T06:58:14.722Z,20.88
2023-05-14T07:00:54.669Z,20.96
2023-05-14T07:03:34.721Z,21.05
2023-05-14T07:06:14.664Z,21.15
2023-05-14T07:08:54.720Z,21.27
2023-05-14T07:11:34.664Z,21.36
2023-05-14T07:14:14.726Z,21.45
2023-05-14T07:16:54.720Z,21.56
2023-05-14T07:19:34.753Z,21.66
2023-05-14T07:22:14.663Z,21.74
2023-05-14T07:24:54.809Z,21.87
2023-05-14T07:27:34.653Z,21.96
2023-05-14T07:30:15.831Z,22.05
2023-05-14T07:32:56.642Z,22.14
2023-05-14T07:35:36.651Z,22.24
2023-05-14T07:38:16.590Z,22.33
2023-05-14T07:40:56.635Z,22.39
2023-05-14T07:43:36.583Z,22.41
2023-05-14T07:46:16.842Z,22.40
2023-05-14T07:48:56.587Z,22.41
2023-05-14T07:51:36.633Z,22.42
2023-05-14T07:54:16.581Z,22.54
2023-05-14T07:56:56.732Z,22.72
2023-05-14T07:59:36.881Z,22.93
2023-05-14T08:02:17.160Z,23.16
2023-05-14T08:04:57.597Z,23.29
2023-05-14T08:07:37.655Z,23.33
2023-05-14T08:10:17.612Z,23.38
2023-05-14T08:12:57.641Z,23.41
2023-05-14T08:15:45.169Z,23.43
2023-05-14T08:18:25.676Z,23.51
2023-05-14T08:21:05.575Z,23.62
2023-05-14T08:23:45.693Z,23.72
2023-05-14T08:26:25.465Z,23.85
2023-05-14T08:29:05.827Z,24.08
2023-05-14T08:31:45.464Z,24.26
2023-05-14T08:34:29.094Z,24.39
2023-05-14T08:37:09.458Z,24.46
2023-05-14T08:39:50.907Z,24.48
2023-05-14T08:42:32.556Z,24.44
2023-05-14T08:45:35.340Z,24.47
2023-05-14T08:48:24.502Z,24.64
2023-05-14T08:51:06.449Z,24.78
2023-05-14T08:53:47.362Z,24.84
2023-05-14T08:56:41.287Z,24.97
2023-05-14T08:59:28.402Z,25.12
2023-05-14T09:02:05.320Z,25.24
2023-05-14T09:05:02.652Z,25.34
2023-05-14T09:07:56.311Z,25.37
2023-05-14T09:10:43.327Z,25.36
2023-05-14T09:13:16.493Z,25.39
2023-05-14T09:16:05.333Z,25.44
2023-05-14T09:18:39.492Z,25.56
2023-05-14T09:21:27.304Z,25.69
2023-05-14T09:24:04.499Z,25.83
2023-05-14T09:26:51.273Z,25.92
2023-05-14T09:29:26.221Z,26.08
2023-05-14T09:32:16.777Z,26.26
2023-05-14T09:34:50.397Z,26.40
2023-05-14T09:37:40.338Z,26.47
2023-05-14T09:40:15.201Z,26.60
2023-05-14T09:43:03.136Z,26.72
2023-05-14T09:45:37.990Z,26.83
2023-05-14T09:48:26.329Z,26.93
2023-05-14T09:51:02.304Z,27.05
2023-05-14T09:53:54.245Z,27.17
2023-05-14T09:56:28.362Z,27.27
2023-05-14T09:59:16.220Z,27.38
2023-05-14T10:01:51.157Z,27.45
2023-05-14T10:04:40.258Z,27.49
2023-05-14T10:07:15.977Z,27.52
2023-05-14T10:10:08.161Z,27.58
2023-05-14T10:12:46.360Z,27.73
2023-05-14T10:15:44.163Z,27.86
2023-05-14T10:18:22.260Z,27.94
2023-05-14T10:21:13.214Z,27.84
2023-05-14T10:23:48.251Z,27.82
2023-05-14T10:26:35.148Z,27.84
2023-05-14T10:29:10.053Z,27.82
2023-05-14T10:32:00.165Z,27.88
2023-05-14T10:34:44.233Z,27.91
2023-05-14T10:37:34.136Z,27.69
2023-05-14T10:40:10.704Z,27.64
2023-05-14T10:42:57.100Z,27.74
2023-05-14T10:45:30.712Z,27.90
2023-05-14T10:48:18.154Z,27.79
2023-05-14T10:50:52.253Z,27.44
2023-05-14T10:53:41.113Z,27.20
2023-05-14T10:56:20.720Z,26.91
2023-05-14T10:59:07.072Z,26.45
2023-05-14T11:01:41.204Z,26.09
2023-05-14T11:04:31.088Z,25.77
2023-05-14T11:07:06.144Z,25.37
2023-05-14T11:09:54.071Z,25.36
2023-05-14T11:12:28.807Z,25.60
2023-05-14T11:15:21.240Z,25.70
2023-05-14T11:17:56.162Z,25.58
2023-05-14T11:20:43.030Z,25.38
2023-05-14T11:23:16.221Z,25.26
2023-05-14T11:26:04.029Z,25.11
2023-05-14T11:28:39.183Z,24.84
2023-05-14T11:31:26.092Z,24.65
2023-05-14T11:34:01.177Z,24.59
2023-05-14T11:36:49.015Z,24.54
2023-05-14T11:39:26.119Z,24.41
2023-05-14T11:42:23.024Z,24.40
2023-05-14T11:44:58.094Z,24.60
2023-05-14T11:47:46.019Z,24.82
2023-05-14T11:50:19.670Z,24.88
2023-05-14T11:53:07.068Z,24.85
2023-05-14T11:55:44.026Z,24.83
2023-05-14T11:58:31.946Z,24.84
2023-05-14T12:01:05.003Z,24.84
2023-05-14T12:03:52.063Z,24.92
2023-05-14T12:06:26.176Z,24.89
2023-05-14T12:09:13.987Z,24.78
2023-05-14T12:11:47.151Z,24.80
2023-05-14T12:14:33.889Z,24.93
2023-05-14T12:17:08.986Z,25.15
2023-05-14T12:19:59.094Z,25.23
2023-05-14T12:22:33.874Z,25.50
2023-05-14T12:25:21.946Z,25.95
2023-05-14T12:27:54.946Z,26.73
2023-05-14T12:30:44.853Z,27.61
2023-05-14T12:33:18.219Z,28.46
2023-05-14T12:36:20.311Z,28.90
2023-05-14T12:38:56.177Z,28.97
2023-05-14T12:41:42.925Z,29.14
2023-05-14T12:44:15.995Z,29.39
2023-05-14T12:47:02.863Z,29.60
2023-05-14T12:49:36.418Z,29.79
2023-05-14T12:52:37.748Z,30.35
2023-05-14T12:55:13.929Z,30.48
2023-05-14T12:58:00.826Z,30.30
2023-05-14T13:00:34.042Z,30.16
2023-05-14T13:03:20.866Z,30.31
2023-05-14T13:05:55.033Z,30.44
2023-05-14T13:08:43.319Z,30.14
2023-05-14T13:11:16.878Z,29.73
2023-05-14T13:14:03.814Z,29.49
2023-05-14T13:16:36.907Z,29.55
2023-05-14T13:19:23.889Z,30.04
